Terminal Aerodrome Forecast
Issued by NWS

Current Version | Previous Version | Text Only | Print | Product List | Glossary Off
Versions: 1 2 3 4 5 6 7 8 9 10 11 12 13 14 15 16 17 18 19 20 21 22 23 24 25 26 27 28 29 30 31 32

107
FTUS41 KRNK 180900 AAA
TAFLWB
TAF AMD
KLWB 180900Z 1809/1906 27004KT 4SM -DZ BR OVC004
      TEMPO 1809/1812 1SM BR OVC002
     FM181500 26008KT 6SM BR SCT008 BKN015
     FM181800 27008KT P6SM BKN020
     FM190500 27006KT P6SM BKN035=

USA.gov is the U.S. government's official web portal to all federal, state and local government web resources and services.